sensor_id;sensor_type;location;lat;lon;timestamp;temperature;humidity
52656;SHT85;35474;51.032;6.998;2023-08-31T00:00:34;14.02;85.06
52656;SHT85;35474;51.032;6.998;2023-08-31T00:03:02;14.09;82.89
52656;SHT85;35474;51.032;6.998;2023-08-31T00:05:29;14.19;83.93
52656;SHT85;35474;51.032;6.998;2023-08-31T00:07:56;14.11;82.99
52656;SHT85;35474;51.032;6.998;2023-08-31T00:10:23;14.21;82.54
52656;SHT85;35474;51.032;6.998;2023-08-31T00:12:50;14.22;81.98
52656;SHT85;35474;51.032;6.998;2023-08-31T00:15:17;14.19;81.82
52656;SHT85;35474;51.032;6.998;2023-08-31T00:17:44;14.18;81.78
52656;SHT85;35474;51.032;6.998;2023-08-31T00:20:11;14.14;81.98
52656;SHT85;35474;51.032;6.998;2023-08-31T00:22:38;14.04;82.26
52656;SHT85;35474;51.032;6.998;2023-08-31T00:25:05;14.00;82.32
52656;SHT85;35474;51.032;6.998;2023-08-31T00:27:34;13.94;82.90
52656;SHT85;35474;51.032;6.998;2023-08-31T00:30:06;13.95;83.00
52656;SHT85;35474;51.032;6.998;2023-08-31T00:32:37;14.04;82.77
52656;SHT85;35474;51.032;6.998;2023-08-31T00:35:05;13.97;82.74
52656;SHT85;35474;51.032;6.998;2023-08-31T00:37:34;13.93;83.10
52656;SHT85;35474;51.032;6.998;2023-08-31T00:40:01;13.97;82.98
52656;SHT85;35474;51.032;6.998;2023-08-31T00:42:30;13.95;82.90
52656;SHT85;35474;51.032;6.998;2023-08-31T00:44:57;13.85;83.09
52656;SHT85;35474;51.032;6.998;2023-08-31T00:47:24;13.84;83.10
52656;SHT85;35474;51.032;6.998;2023-08-31T00:49:50;13.78;83.39
52656;SHT85;35474;51.032;6.998;2023-08-31T00:52:17;13.77;83.30
52656;SHT85;35474;51.032;6.998;2023-08-31T00:54:46;13.75;83.46
52656;SHT85;35474;51.032;6.998;2023-08-31T00:57:13;13.80;83.47
52656;SHT85;35474;51.032;6.998;2023-08-31T00:59:40;13.77;83.37
52656;SHT85;35474;51.032;6.998;2023-08-31T01:04:55;13.67;83.42
52656;SHT85;35474;51.032;6.998;2023-08-31T01:07:48;13.67;83.72
52656;SHT85;35474;51.032;6.998;2023-08-31T01:13:29;13.57;84.06
52656;SHT85;35474;51.032;6.998;2023-08-31T01:15:59;13.57;83.99
52656;SHT85;35474;51.032;6.998;2023-08-31T01:18:29;13.67;83.54
52656;SHT85;35474;51.032;6.998;2023-08-31T01:21:02;13.54;84.01
52656;SHT85;35474;51.032;6.998;2023-08-31T01:23:50;13.54;83.47
52656;SHT85;35474;51.032;6.998;2023-08-31T01:26:17;13.54;83.70
52656;SHT85;35474;51.032;6.998;2023-08-31T01:28:44;13.56;83.50
52656;SHT85;35474;51.032;6.998;2023-08-31T01:31:12;13.48;83.85
52656;SHT85;35474;51.032;6.998;2023-08-31T01:33:38;13.51;83.58
52656;SHT85;35474;51.032;6.998;2023-08-31T01:36:10;13.44;83.66
52656;SHT85;35474;51.032;6.998;2023-08-31T01:38:43;13.48;83.50
52656;SHT85;35474;51.032;6.998;2023-08-31T01:41:16;13.47;83.22
52656;SHT85;35474;51.032;6.998;2023-08-31T01:43:45;13.48;83.27
52656;SHT85;35474;51.032;6.998;2023-08-31T01:46:14;13.39;83.80
52656;SHT85;35474;51.032;6.998;2023-08-31T01:48:42;13.42;83.30
52656;SHT85;35474;51.032;6.998;2023-08-31T01:51:09;13.33;83.70
52656;SHT85;35474;51.032;6.998;2023-08-31T01:53:36;13.30;84.19
52656;SHT85;35474;51.032;6.998;2023-08-31T01:56:03;13.47;83.87
52656;SHT85;35474;51.032;6.998;2023-08-31T01:58:31;13.48;83.21
52656;SHT85;35474;51.032;6.998;2023-08-31T02:00:58;13.56;82.80
52656;SHT85;35474;51.032;6.998;2023-08-31T02:03:25;13.64;82.18
52656;SHT85;35474;51.032;6.998;2023-08-31T02:05:51;13.65;81.83
52656;SHT85;35474;51.032;6.998;2023-08-31T02:08:18;13.60;81.99
52656;SHT85;35474;51.032;6.998;2023-08-31T02:10:48;13.60;81.98
52656;SHT85;35474;51.032;6.998;2023-08-31T02:13:15;13.51;82.64
52656;SHT85;35474;51.032;6.998;2023-08-31T02:15:42;13.51;82.24
52656;SHT85;35474;51.032;6.998;2023-08-31T02:18:09;13.44;82.73
52656;SHT85;35474;51.032;6.998;2023-08-31T02:20:36;13.40;83.09
52656;SHT85;35474;51.032;6.998;2023-08-31T02:23:05;13.44;82.59
52656;SHT85;35474;51.032;6.998;2023-08-31T02:25:32;13.36;82.64
52656;SHT85;35474;51.032;6.998;2023-08-31T02:27:59;13.34;82.87
52656;SHT85;35474;51.032;6.998;2023-08-31T02:30:26;13.37;82.89
52656;SHT85;35474;51.032;6.998;2023-08-31T02:32:52;13.29;82.95
52656;SHT85;35474;51.032;6.998;2023-08-31T02:35:19;13.26;83.20
52656;SHT85;35474;51.032;6.998;2023-08-31T02:37:46;13.19;83.32
52656;SHT85;35474;51.032;6.998;2023-08-31T02:40:12;13.18;83.32
52656;SHT85;35474;51.032;6.998;2023-08-31T02:42:39;13.22;82.96
52656;SHT85;35474;51.032;6.998;2023-08-31T02:45:06;13.23;83.06
52656;SHT85;35474;51.032;6.998;2023-08-31T02:47:32;12.93;82.99
52656;SHT85;35474;51.032;6.998;2023-08-31T02:49:59;13.09;83.83
52656;SHT85;35474;51.032;6.998;2023-08-31T02:52:26;13.09;83.39
52656;SHT85;35474;51.032;6.998;2023-08-31T02:54:52;13.15;82.75
52656;SHT85;35474;51.032;6.998;2023-08-31T02:57:20;13.11;82.71
52656;SHT85;35474;51.032;6.998;2023-08-31T02:59:51;13.06;83.11
52656;SHT85;35474;51.032;6.998;2023-08-31T03:02:17;13.02;83.26
52656;SHT85;35474;51.032;6.998;2023-08-31T03:04:44;12.99;83.60
52656;SHT85;35474;51.032;6.998;2023-08-31T03:07:11;12.93;83.70
52656;SHT85;35474;51.032;6.998;2023-08-31T03:09:40;12.96;83.44
52656;SHT85;35474;51.032;6.998;2023-08-31T03:12:07;12.76;83.47
52656;SHT85;35474;51.032;6.998;2023-08-31T03:14:34;12.65;84.31
52656;SHT85;35474;51.032;6.998;2023-08-31T03:17:00;12.63;85.39
52656;SHT85;35474;51.032;6.998;2023-08-31T03:19:27;12.60;86.13
52656;SHT85;35474;51.032;6.998;2023-08-31T03:21:54;12.55;86.14
52656;SHT85;35474;51.032;6.998;2023-08-31T03:24:20;12.61;86.10
52656;SHT85;35474;51.032;6.998;2023-08-31T03:26:47;12.72;85.94
52656;SHT85;35474;51.032;6.998;2023-08-31T03:29:14;12.81;85.98
52656;SHT85;35474;51.032;6.998;2023-08-31T03:31:40;12.84;86.00
52656;SHT85;35474;51.032;6.998;2023-08-31T03:34:07;12.86;85.70
52656;SHT85;35474;51.032;6.998;2023-08-31T03:36:33;13.02;85.20
52656;SHT85;35474;51.032;6.998;2023-08-31T03:39:00;13.20;84.47
52656;SHT85;35474;51.032;6.998;2023-08-31T03:41:26;13.29;84.28
52656;SHT85;35474;51.032;6.998;2023-08-31T03:43:53;13.26;84.08
52656;SHT85;35474;51.032;6.998;2023-08-31T03:46:20;13.32;83.57
52656;SHT85;35474;51.032;6.998;2023-08-31T03:48:46;13.51;82.83
52656;SHT85;35474;51.032;6.998;2023-08-31T03:51:13;13.50;82.06
52656;SHT85;35474;51.032;6.998;2023-08-31T03:53:40;13.74;82.13
52656;SHT85;35474;51.032;6.998;2023-08-31T03:56:07;13.64;82.13
52656;SHT85;35474;51.032;6.998;2023-08-31T03:58:33;13.57;81.91
52656;SHT85;35474;51.032;6.998;2023-08-31T04:01:00;13.53;81.95
52656;SHT85;35474;51.032;6.998;2023-08-31T04:03:26;13.60;82.15
52656;SHT85;35474;51.032;6.998;2023-08-31T04:05:54;13.51;82.20
52656;SHT85;35474;51.032;6.998;2023-08-31T04:08:21;13.61;81.72
52656;SHT85;35474;51.032;6.998;2023-08-31T04:10:48;13.73;82.00
52656;SHT85;35474;51.032;6.998;2023-08-31T04:13:14;13.57;82.00
52656;SHT85;35474;51.032;6.998;2023-08-31T04:15:41;13.46;82.35
52656;SHT85;35474;51.032;6.998;2023-08-31T04:18:08;13.54;82.13
52656;SHT85;35474;51.032;6.998;2023-08-31T04:20:35;13.51;82.48
52656;SHT85;35474;51.032;6.998;2023-08-31T04:23:01;13.56;82.37
52656;SHT85;35474;51.032;6.998;2023-08-31T04:25:28;13.58;82.08
52656;SHT85;35474;51.032;6.998;2023-08-31T04:27:57;13.63;82.16
52656;SHT85;35474;51.032;6.998;2023-08-31T04:30:24;13.65;81.97
52656;SHT85;35474;51.032;6.998;2023-08-31T04:32:52;13.60;81.93
52656;SHT85;35474;51.032;6.998;2023-08-31T04:35:19;13.65;82.08
52656;SHT85;35474;51.032;6.998;2023-08-31T04:37:46;13.77;81.96
52656;SHT85;35474;51.032;6.998;2023-08-31T04:40:13;13.64;81.78
52656;SHT85;35474;51.032;6.998;2023-08-31T04:42:39;13.67;81.84
52656;SHT85;35474;51.032;6.998;2023-08-31T04:45:06;13.61;81.99
52656;SHT85;35474;51.032;6.998;2023-08-31T04:47:33;13.65;81.98
52656;SHT85;35474;51.032;6.998;2023-08-31T04:50:00;13.61;81.97
52656;SHT85;35474;51.032;6.998;2023-08-31T04:52:27;13.64;82.39
52656;SHT85;35474;51.032;6.998;2023-08-31T04:54:53;13.73;81.98
52656;SHT85;35474;51.032;6.998;2023-08-31T04:57:20;13.61;82.30
52656;SHT85;35474;51.032;6.998;2023-08-31T04:59:47;13.68;82.10
52656;SHT85;35474;51.032;6.998;2023-08-31T05:02:13;13.60;82.20
52656;SHT85;35474;51.032;6.998;2023-08-31T05:04:40;13.48;82.77
52656;SHT85;35474;51.032;6.998;2023-08-31T05:07:07;13.44;83.03
52656;SHT85;35474;51.032;6.998;2023-08-31T05:09:33;13.37;83.23
52656;SHT85;35474;51.032;6.998;2023-08-31T05:12:01;13.32;83.50
52656;SHT85;35474;51.032;6.998;2023-08-31T05:14:32;13.26;83.95
52656;SHT85;35474;51.032;6.998;2023-08-31T05:17:00;13.22;83.88
52656;SHT85;35474;51.032;6.998;2023-08-31T05:19:28;13.23;83.83
52656;SHT85;35474;51.032;6.998;2023-08-31T05:21:55;13.25;83.99
52656;SHT85;35474;51.032;6.998;2023-08-31T05:24:21;13.23;84.14
52656;SHT85;35474;51.032;6.998;2023-08-31T05:26:51;13.20;84.19
52656;SHT85;35474;51.032;6.998;2023-08-31T05:29:17;13.12;84.37
52656;SHT85;35474;51.032;6.998;2023-08-31T05:31:44;13.09;84.71
52656;SHT85;35474;51.032;6.998;2023-08-31T05:34:15;13.07;84.87
52656;SHT85;35474;51.032;6.998;2023-08-31T05:36:43;13.07;85.04
52656;SHT85;35474;51.032;6.998;2023-08-31T05:39:09;13.12;84.90
52656;SHT85;35474;51.032;6.998;2023-08-31T05:41:36;13.15;84.55
52656;SHT85;35474;51.032;6.998;2023-08-31T05:44:03;13.03;84.47
52656;SHT85;35474;51.032;6.998;2023-08-31T05:46:30;13.07;85.24
52656;SHT85;35474;51.032;6.998;2023-08-31T05:48:56;13.07;85.07
52656;SHT85;35474;51.032;6.998;2023-08-31T05:51:23;13.00;85.26
52656;SHT85;35474;51.032;6.998;2023-08-31T05:53:50;13.06;85.20
52656;SHT85;35474;51.032;6.998;2023-08-31T05:56:18;13.12;85.40
52656;SHT85;35474;51.032;6.998;2023-08-31T05:58:45;13.15;85.10
52656;SHT85;35474;51.032;6.998;2023-08-31T06:01:13;13.15;85.08
52656;SHT85;35474;51.032;6.998;2023-08-31T06:03:40;13.18;84.97
52656;SHT85;35474;51.032;6.998;2023-08-31T06:06:06;13.12;85.30
52656;SHT85;35474;51.032;6.998;2023-08-31T06:08:33;13.18;85.23
52656;SHT85;35474;51.032;6.998;2023-08-31T06:11:00;13.33;84.91
52656;SHT85;35474;51.032;6.998;2023-08-31T06:13:26;13.32;84.61
52656;SHT85;35474;51.032;6.998;2023-08-31T06:15:54;13.32;84.70
52656;SHT85;35474;51.032;6.998;2023-08-31T06:18:21;13.48;84.21
52656;SHT85;35474;51.032;6.998;2023-08-31T06:20:49;13.56;83.77
52656;SHT85;35474;51.032;6.998;2023-08-31T06:23:16;13.54;83.65
52656;SHT85;35474;51.032;6.998;2023-08-31T06:25:43;13.56;83.47
52656;SHT85;35474;51.032;6.998;2023-08-31T06:28:12;13.61;83.37
52656;SHT85;35474;51.032;6.998;2023-08-31T06:32:34;13.63;83.43
52656;SHT85;35474;51.032;6.998;2023-08-31T06:35:01;13.71;83.27
52656;SHT85;35474;51.032;6.998;2023-08-31T06:37:28;13.68;83.28
52656;SHT85;35474;51.032;6.998;2023-08-31T06:39:54;13.73;83.39
52656;SHT85;35474;51.032;6.998;2023-08-31T06:42:21;13.71;82.92
52656;SHT85;35474;51.032;6.998;2023-08-31T06:44:48;13.81;82.71
52656;SHT85;35474;51.032;6.998;2023-08-31T06:47:15;13.93;82.85
52656;SHT85;35474;51.032;6.998;2023-08-31T06:49:43;13.93;82.48
52656;SHT85;35474;51.032;6.998;2023-08-31T06:52:10;13.93;82.76
52656;SHT85;35474;51.032;6.998;2023-08-31T06:54:56;13.94;82.52
52656;SHT85;35474;51.032;6.998;2023-08-31T06:57:23;14.04;82.42
52656;SHT85;35474;51.032;6.998;2023-08-31T06:59:50;14.15;81.83
52656;SHT85;35474;51.032;6.998;2023-08-31T07:02:17;14.25;81.54
52656;SHT85;35474;51.032;6.998;2023-08-31T07:04:49;14.29;81.59
52656;SHT85;35474;51.032;6.998;2023-08-31T07:07:16;14.26;81.30
52656;SHT85;35474;51.032;6.998;2023-08-31T07:09:43;14.30;81.15
52656;SHT85;35474;51.032;6.998;2023-08-31T07:12:10;14.39;81.07
52656;SHT85;35474;51.032;6.998;2023-08-31T07:14:37;14.48;80.59
52656;SHT85;35474;51.032;6.998;2023-08-31T07:17:04;14.60;80.42
52656;SHT85;35474;51.032;6.998;2023-08-31T07:19:31;14.74;80.36
52656;SHT85;35474;51.032;6.998;2023-08-31T07:22:01;14.87;79.98
52656;SHT85;35474;51.032;6.998;2023-08-31T07:24:30;14.91;78.64
52656;SHT85;35474;51.032;6.998;2023-08-31T07:26:57;14.94;78.55
52656;SHT85;35474;51.032;6.998;2023-08-31T07:29:23;14.98;78.20
52656;SHT85;35474;51.032;6.998;2023-08-31T07:31:51;15.76;76.40
52656;SHT85;35474;51.032;6.998;2023-08-31T07:34:17;16.49;72.93
52656;SHT85;35474;51.032;6.998;2023-08-31T07:36:44;15.83;75.60
52656;SHT85;35474;51.032;6.998;2023-08-31T07:39:11;15.42;76.60
52656;SHT85;35474;51.032;6.998;2023-08-31T07:41:37;15.38;76.66
52656;SHT85;35474;51.032;6.998;2023-08-31T07:44:05;15.22;76.66
52656;SHT85;35474;51.032;6.998;2023-08-31T07:46:32;15.80;75.60
52656;SHT85;35474;51.032;6.998;2023-08-31T07:48:58;15.97;75.17
52656;SHT85;35474;51.032;6.998;2023-08-31T07:51:25;16.62;73.34
52656;SHT85;35474;51.032;6.998;2023-08-31T07:53:52;16.65;72.14
52656;SHT85;35474;51.032;6.998;2023-08-31T07:56:19;17.20;71.29
52656;SHT85;35474;51.032;6.998;2023-08-31T07:58:45;16.78;72.04
52656;SHT85;35474;51.032;6.998;2023-08-31T08:01:12;16.42;73.10
52656;SHT85;35474;51.032;6.998;2023-08-31T08:03:39;17.03;71.99
52656;SHT85;35474;51.032;6.998;2023-08-31T08:06:06;17.09;71.61
52656;SHT85;35474;51.032;6.998;2023-08-31T08:08:32;17.68;69.48
52656;SHT85;35474;51.032;6.998;2023-08-31T08:10:59;17.24;70.20
52656;SHT85;35474;51.032;6.998;2023-08-31T08:13:26;17.19;70.50
52656;SHT85;35474;51.032;6.998;2023-08-31T08:15:52;16.14;73.32
52656;SHT85;35474;51.032;6.998;2023-08-31T08:18:19;16.27;73.95
52656;SHT85;35474;51.032;6.998;2023-08-31T08:20:51;16.51;73.23
52656;SHT85;35474;51.032;6.998;2023-08-31T08:23:18;16.59;72.60
52656;SHT85;35474;51.032;6.998;2023-08-31T08:25:45;16.55;72.94
52656;SHT85;35474;51.032;6.998;2023-08-31T08:28:12;16.59;72.73
52656;SHT85;35474;51.032;6.998;2023-08-31T08:30:38;16.58;73.12
52656;SHT85;35474;51.032;6.998;2023-08-31T08:33:05;16.65;72.93
52656;SHT85;35474;51.032;6.998;2023-08-31T08:35:32;16.71;72.77
52656;SHT85;35474;51.032;6.998;2023-08-31T08:37:59;16.62;73.03
52656;SHT85;35474;51.032;6.998;2023-08-31T08:40:25;16.58;73.31
52656;SHT85;35474;51.032;6.998;2023-08-31T08:42:53;16.72;72.88
52656;SHT85;35474;51.032;6.998;2023-08-31T08:45:20;16.71;72.97
52656;SHT85;35474;51.032;6.998;2023-08-31T08:47:50;17.38;70.57
52656;SHT85;35474;51.032;6.998;2023-08-31T08:50:17;17.68;69.18
52656;SHT85;35474;51.032;6.998;2023-08-31T08:52:46;18.22;68.88
52656;SHT85;35474;51.032;6.998;2023-08-31T08:55:13;18.53;65.60
52656;SHT85;35474;51.032;6.998;2023-08-31T08:57:41;19.49;66.12
52656;SHT85;35474;51.032;6.998;2023-08-31T09:00:08;18.63;65.05
52656;SHT85;35474;51.032;6.998;2023-08-31T09:02:35;18.81;65.51
52656;SHT85;35474;51.032;6.998;2023-08-31T09:05:01;18.53;66.09
52656;SHT85;35474;51.032;6.998;2023-08-31T09:07:34;19.11;64.77
52656;SHT85;35474;51.032;6.998;2023-08-31T09:10:03;19.47;61.75
52656;SHT85;35474;51.032;6.998;2023-08-31T09:12:30;19.62;62.78
52656;SHT85;35474;51.032;6.998;2023-08-31T09:14:58;19.31;62.97
52656;SHT85;35474;51.032;6.998;2023-08-31T09:17:37;18.89;64.06
52656;SHT85;35474;51.032;6.998;2023-08-31T09:20:10;19.62;61.28
52656;SHT85;35474;51.032;6.998;2023-08-31T09:22:38;19.56;61.39
52656;SHT85;35474;51.032;6.998;2023-08-31T09:25:08;18.89;63.54
52656;SHT85;35474;51.032;6.998;2023-08-31T09:27:38;18.17;64.71
52656;SHT85;35474;51.032;6.998;2023-08-31T09:30:07;19.38;62.30
52656;SHT85;35474;51.032;6.998;2023-08-31T09:32:35;19.49;61.14
52656;SHT85;35474;51.032;6.998;2023-08-31T09:35:02;20.29;60.63
52656;SHT85;35474;51.032;6.998;2023-08-31T09:37:54;20.07;60.41
52656;SHT85;35474;51.032;6.998;2023-08-31T09:40:23;19.97;58.37
52656;SHT85;35474;51.032;6.998;2023-08-31T09:42:50;19.57;58.74
52656;SHT85;35474;51.032;6.998;2023-08-31T09:45:18;18.89;60.86
52656;SHT85;35474;51.032;6.998;2023-08-31T09:48:10;19.26;59.99
52656;SHT85;35474;51.032;6.998;2023-08-31T09:50:37;18.84;60.62
52656;SHT85;35474;51.032;6.998;2023-08-31T09:53:05;18.97;61.09
52656;SHT85;35474;51.032;6.998;2023-08-31T09:55:38;19.23;60.37
52656;SHT85;35474;51.032;6.998;2023-08-31T09:58:07;18.22;62.01
52656;SHT85;35474;51.032;6.998;2023-08-31T10:00:41;18.70;60.87
52656;SHT85;35474;51.032;6.998;2023-08-31T10:03:09;18.66;60.99
52656;SHT85;35474;51.032;6.998;2023-08-31T10:05:45;18.60;61.56
52656;SHT85;35474;51.032;6.998;2023-08-31T10:08:12;18.87;61.91
52656;SHT85;35474;51.032;6.998;2023-08-31T10:10:42;19.45;60.06
52656;SHT85;35474;51.032;6.998;2023-08-31T10:13:09;18.83;60.29
52656;SHT85;35474;51.032;6.998;2023-08-31T10:15:38;18.87;59.13
52656;SHT85;35474;51.032;6.998;2023-08-31T10:18:06;19.35;58.43
52656;SHT85;35474;51.032;6.998;2023-08-31T10:20:34;19.25;59.19
52656;SHT85;35474;51.032;6.998;2023-08-31T10:23:05;18.88;59.62
52656;SHT85;35474;51.032;6.998;2023-08-31T10:28:24;18.58;59.09
52656;SHT85;35474;51.032;6.998;2023-08-31T10:33:32;18.44;60.33
52656;SHT85;35474;51.032;6.998;2023-08-31T10:36:00;18.57;60.30
52656;SHT85;35474;51.032;6.998;2023-08-31T10:38:30;19.01;59.72
52656;SHT85;35474;51.032;6.998;2023-08-31T10:43:53;18.89;60.17
52656;SHT85;35474;51.032;6.998;2023-08-31T10:46:27;19.15;59.95
52656;SHT85;35474;51.032;6.998;2023-08-31T10:51:46;18.63;59.27
52656;SHT85;35474;51.032;6.998;2023-08-31T10:54:24;18.53;59.91
52656;SHT85;35474;51.032;6.998;2023-08-31T11:05:13;19.66;58.77
52656;SHT85;35474;51.032;6.998;2023-08-31T11:07:42;20.55;56.18
52656;SHT85;35474;51.032;6.998;2023-08-31T11:10:17;20.04;58.25
52656;SHT85;35474;51.032;6.998;2023-08-31T11:12:50;19.87;58.87
52656;SHT85;35474;51.032;6.998;2023-08-31T11:15:22;19.47;58.93
52656;SHT85;35474;51.032;6.998;2023-08-31T11:17:50;19.42;58.56
52656;SHT85;35474;51.032;6.998;2023-08-31T11:20:18;19.42;58.16
52656;SHT85;35474;51.032;6.998;2023-08-31T11:22:47;19.80;57.04
52656;SHT85;35474;51.032;6.998;2023-08-31T11:25:24;19.94;55.61
52656;SHT85;35474;51.032;6.998;2023-08-31T11:27:55;20.05;55.99
52656;SHT85;35474;51.032;6.998;2023-08-31T11:30:24;20.41;54.96
52656;SHT85;35474;51.032;6.998;2023-08-31T11:32:55;19.64;55.55
52656;SHT85;35474;51.032;6.998;2023-08-31T11:35:22;20.24;54.56
52656;SHT85;35474;51.032;6.998;2023-08-31T11:37:51;21.10;53.37
52656;SHT85;35474;51.032;6.998;2023-08-31T11:40:22;21.28;53.07
52656;SHT85;35474;51.032;6.998;2023-08-31T11:42:49;21.31;52.80
52656;SHT85;35474;51.032;6.998;2023-08-31T11:45:19;21.83;51.19
52656;SHT85;35474;51.032;6.998;2023-08-31T11:47:48;21.54;52.40
52656;SHT85;35474;51.032;6.998;2023-08-31T11:50:16;21.45;52.61
52656;SHT85;35474;51.032;6.998;2023-08-31T11:52:44;21.13;54.42
52656;SHT85;35474;51.032;6.998;2023-08-31T11:55:11;20.75;54.82
52656;SHT85;35474;51.032;6.998;2023-08-31T11:57:39;20.35;55.65
52656;SHT85;35474;51.032;6.998;2023-08-31T12:00:06;20.03;55.25
52656;SHT85;35474;51.032;6.998;2023-08-31T12:02:36;20.79;53.75
52656;SHT85;35474;51.032;6.998;2023-08-31T12:05:03;21.27;52.57
52656;SHT85;35474;51.032;6.998;2023-08-31T12:07:38;21.20;54.85
52656;SHT85;35474;51.032;6.998;2023-08-31T12:10:07;21.06;56.62
52656;SHT85;35474;51.032;6.998;2023-08-31T12:12:35;20.65;57.62
52656;SHT85;35474;51.032;6.998;2023-08-31T12:15:03;20.25;56.87
52656;SHT85;35474;51.032;6.998;2023-08-31T12:17:31;20.44;55.91
52656;SHT85;35474;51.032;6.998;2023-08-31T12:20:06;21.04;53.86
52656;SHT85;35474;51.032;6.998;2023-08-31T12:22:33;20.24;54.99
52656;SHT85;35474;51.032;6.998;2023-08-31T12:25:01;20.44;54.10
52656;SHT85;35474;51.032;6.998;2023-08-31T12:27:28;21.27;53.85
52656;SHT85;35474;51.032;6.998;2023-08-31T12:29:56;20.80;54.53
52656;SHT85;35474;51.032;6.998;2023-08-31T12:32:24;20.82;53.73
52656;SHT85;35474;51.032;6.998;2023-08-31T12:34:51;21.51;53.10
52656;SHT85;35474;51.032;6.998;2023-08-31T12:37:17;20.26;55.96
52656;SHT85;35474;51.032;6.998;2023-08-31T12:39:44;19.80;57.59
52656;SHT85;35474;51.032;6.998;2023-08-31T12:42:12;19.70;58.77
52656;SHT85;35474;51.032;6.998;2023-08-31T12:44:49;19.42;61.38
52656;SHT85;35474;51.032;6.998;2023-08-31T12:47:16;19.14;63.00
52656;SHT85;35474;51.032;6.998;2023-08-31T12:49:42;19.11;63.00
52656;SHT85;35474;51.032;6.998;2023-08-31T12:52:09;18.66;61.48
52656;SHT85;35474;51.032;6.998;2023-08-31T12:54:36;18.81;56.96
52656;SHT85;35474;51.032;6.998;2023-08-31T12:57:02;18.78;54.97
52656;SHT85;35474;51.032;6.998;2023-08-31T12:59:29;19.29;53.78
52656;SHT85;35474;51.032;6.998;2023-08-31T13:01:55;19.18;54.58
52656;SHT85;35474;51.032;6.998;2023-08-31T13:04:23;18.97;55.32
52656;SHT85;35474;51.032;6.998;2023-08-31T13:06:55;19.06;56.34
52656;SHT85;35474;51.032;6.998;2023-08-31T13:09:22;19.15;57.32
52656;SHT85;35474;51.032;6.998;2023-08-31T13:11:49;19.69;57.21
52656;SHT85;35474;51.032;6.998;2023-08-31T13:14:16;19.63;57.82
52656;SHT85;35474;51.032;6.998;2023-08-31T13:16:43;19.69;57.71
52656;SHT85;35474;51.032;6.998;2023-08-31T13:19:10;19.87;58.08
52656;SHT85;35474;51.032;6.998;2023-08-31T13:21:37;20.94;55.05
52656;SHT85;35474;51.032;6.998;2023-08-31T13:24:03;21.14;54.94
52656;SHT85;35474;51.032;6.998;2023-08-31T13:26:30;21.06;55.64
52656;SHT85;35474;51.032;6.998;2023-08-31T13:28:57;20.01;58.48
52656;SHT85;35474;51.032;6.998;2023-08-31T13:31:24;19.87;59.19
52656;SHT85;35474;51.032;6.998;2023-08-31T13:33:50;19.93;59.49
52656;SHT85;35474;51.032;6.998;2023-08-31T13:36:17;20.15;58.90
52656;SHT85;35474;51.032;6.998;2023-08-31T13:38:44;19.76;60.54
52656;SHT85;35474;51.032;6.998;2023-08-31T13:41:11;19.28;64.02
52656;SHT85;35474;51.032;6.998;2023-08-31T13:43:37;19.11;65.60
52656;SHT85;35474;51.032;6.998;2023-08-31T13:46:04;19.31;64.79
52656;SHT85;35474;51.032;6.998;2023-08-31T13:48:31;20.03;63.11
52656;SHT85;35474;51.032;6.998;2023-08-31T13:50:59;20.52;60.31
52656;SHT85;35474;51.032;6.998;2023-08-31T13:53:26;21.96;57.18
52656;SHT85;35474;51.032;6.998;2023-08-31T13:55:53;21.21;55.81
52656;SHT85;35474;51.032;6.998;2023-08-31T13:58:19;21.93;54.37
52656;SHT85;35474;51.032;6.998;2023-08-31T14:00:46;21.47;53.71
52656;SHT85;35474;51.032;6.998;2023-08-31T14:03:12;21.68;52.41
52656;SHT85;35474;51.032;6.998;2023-08-31T14:05:39;21.00;52.53
52656;SHT85;35474;51.032;6.998;2023-08-31T14:08:06;21.64;51.03
52656;SHT85;35474;51.032;6.998;2023-08-31T14:10:32;21.23;51.39
52656;SHT85;35474;51.032;6.998;2023-08-31T14:12:59;21.61;50.05
52656;SHT85;35474;51.032;6.998;2023-08-31T14:15:26;21.00;52.06
52656;SHT85;35474;51.032;6.998;2023-08-31T14:17:53;21.95;50.93
52656;SHT85;35474;51.032;6.998;2023-08-31T14:20:21;21.72;52.00
52656;SHT85;35474;51.032;6.998;2023-08-31T14:22:48;21.89;51.84
52656;SHT85;35474;51.032;6.998;2023-08-31T14:25:16;21.58;52.34
52656;SHT85;35474;51.032;6.998;2023-08-31T14:27:43;20.68;55.49
52656;SHT85;35474;51.032;6.998;2023-08-31T14:30:10;21.64;53.82
52656;SHT85;35474;51.032;6.998;2023-08-31T14:32:37;21.77;53.05
52656;SHT85;35474;51.032;6.998;2023-08-31T14:35:03;21.79;51.35
52656;SHT85;35474;51.032;6.998;2023-08-31T14:37:32;21.93;51.75
52656;SHT85;35474;51.032;6.998;2023-08-31T14:39:59;22.88;50.14
52656;SHT85;35474;51.032;6.998;2023-08-31T14:42:25;22.98;49.30
52656;SHT85;35474;51.032;6.998;2023-08-31T14:44:52;22.19;50.74
52656;SHT85;35474;51.032;6.998;2023-08-31T14:47:19;21.69;51.93
52656;SHT85;35474;51.032;6.998;2023-08-31T14:49:45;21.75;51.55
52656;SHT85;35474;51.032;6.998;2023-08-31T14:52:12;21.42;52.14
52656;SHT85;35474;51.032;6.998;2023-08-31T14:54:39;21.26;52.46
52656;SHT85;35474;51.032;6.998;2023-08-31T14:57:05;21.14;52.90
52656;SHT85;35474;51.032;6.998;2023-08-31T14:59:32;21.10;54.02
52656;SHT85;35474;51.032;6.998;2023-08-31T15:01:59;21.26;53.55
52656;SHT85;35474;51.032;6.998;2023-08-31T15:04:31;21.74;52.76
52656;SHT85;35474;51.032;6.998;2023-08-31T15:06:58;21.19;53.66
52656;SHT85;35474;51.032;6.998;2023-08-31T15:09:25;20.97;54.49
52656;SHT85;35474;51.032;6.998;2023-08-31T15:11:52;20.59;55.24
52656;SHT85;35474;51.032;6.998;2023-08-31T15:14:19;20.77;54.89
52656;SHT85;35474;51.032;6.998;2023-08-31T15:16:46;20.38;55.42
52656;SHT85;35474;51.032;6.998;2023-08-31T15:19:13;20.39;55.58
52656;SHT85;35474;51.032;6.998;2023-08-31T15:21:40;20.36;56.24
52656;SHT85;35474;51.032;6.998;2023-08-31T15:24:06;20.29;55.12
52656;SHT85;35474;51.032;6.998;2023-08-31T15:26:33;20.44;55.29
52656;SHT85;35474;51.032;6.998;2023-08-31T15:29:00;20.28;54.55
52656;SHT85;35474;51.032;6.998;2023-08-31T15:31:26;20.08;54.75
52656;SHT85;35474;51.032;6.998;2023-08-31T15:33:53;20.25;55.10
52656;SHT85;35474;51.032;6.998;2023-08-31T15:36:20;20.28;55.47
52656;SHT85;35474;51.032;6.998;2023-08-31T15:38:46;20.24;55.60
52656;SHT85;35474;51.032;6.998;2023-08-31T15:41:15;20.32;55.14
52656;SHT85;35474;51.032;6.998;2023-08-31T15:43:42;20.39;55.21
52656;SHT85;35474;51.032;6.998;2023-08-31T15:46:09;20.04;55.88
52656;SHT85;35474;51.032;6.998;2023-08-31T15:48:36;20.04;55.71
52656;SHT85;35474;51.032;6.998;2023-08-31T15:51:03;19.98;56.23
52656;SHT85;35474;51.032;6.998;2023-08-31T15:53:30;19.80;56.97
52656;SHT85;35474;51.032;6.998;2023-08-31T15:55:57;20.05;56.47
52656;SHT85;35474;51.032;6.998;2023-08-31T15:58:24;20.42;55.77
52656;SHT85;35474;51.032;6.998;2023-08-31T16:00:53;20.79;54.15